< < Back
Terminal Aerodrome Forecast


Current Version              Previous Versions:   1  2  3  4  5  6  7  8  9  

Terminal Aerodrome Forecast

185
FTUS42 KJAX 021815 AAA
TAFJAX
TAF AMD
KJAX 021815Z 0218/0318 20006KT P6SM VCTS BKN040CB BKN060
      TEMPO 0218/0221 VRB20G30KT 3SM TSRA BKN025CB
     FM030000 23003KT P6SM VCSH SCT040 BKN100 BKN250
     FM031200 29007KT P6SM VCSH BKN040 OVC100=

Latest METAR

170
SAUS80 KWBC 021800 RRA
MTRJAX
METAR KJAX 021756Z 23004KT 10SM -RA BKN033 BKN090 BKN200 30/23 A3003 RMK
AO2 RAB55 SLP170 P0000 60000 T03000233 10311 20250 58018


USA.gov is the U.S. government's official web portal to all federal, state and local government web resources and services.